createdAt,value
2019-04-05T00:02:18.453Z,8.37
2019-04-05T00:04:47.090Z,6.77
2019-04-05T00:07:15.795Z,8.53
2019-04-05T00:09:44.682Z,9.48
2019-04-05T00:12:13.309Z,9.27
2019-04-05T00:14:41.950Z,8.50
2019-04-05T00:17:10.571Z,8.47
2019-04-05T00:19:39.203Z,8.43
2019-04-05T00:22:07.843Z,8.50
2019-04-05T00:24:36.592Z,8.87
2019-04-05T00:27:05.427Z,9.00
2019-04-05T00:29:34.171Z,9.07
2019-04-05T00:32:02.860Z,8.68
2019-04-05T00:34:31.479Z,8.05
2019-04-05T00:37:00.358Z,9.35
2019-04-05T00:39:28.996Z,8.67
2019-04-05T00:41:57.619Z,8.33
2019-04-05T00:44:26.307Z,9.55
2019-04-05T00:46:54.942Z,10.20
2019-04-05T00:49:23.566Z,9.20
2019-04-05T00:51:52.191Z,8.68
2019-04-05T00:54:21.248Z,9.18
2019-04-05T00:56:49.909Z,8.73
2019-04-05T00:59:18.527Z,8.73
2019-04-05T01:01:47.163Z,10.30
2019-04-05T01:04:15.871Z,8.65
2019-04-05T01:06:44.619Z,8.70
2019-04-05T01:09:13.296Z,9.27
2019-04-05T01:11:41.923Z,8.57
2019-04-05T01:14:10.567Z,8.75
2019-04-05T01:16:39.925Z,7.83
2019-04-05T01:19:08.643Z,8.33
2019-04-05T01:21:39.453Z,8.87
2019-04-05T01:24:08.975Z,9.00
2019-04-05T01:26:39.269Z,9.37
2019-04-05T01:29:07.912Z,8.73
2019-04-05T01:31:36.535Z,9.43
2019-04-05T01:34:05.876Z,8.98
2019-04-05T01:36:35.499Z,9.73
2019-04-05T01:39:05.283Z,9.10
2019-04-05T01:41:34.399Z,9.47
2019-04-05T01:44:03.164Z,8.78
2019-04-05T01:46:31.983Z,9.00
2019-04-05T01:49:00.639Z,9.33
2019-04-05T01:51:29.287Z,8.55
2019-04-05T01:53:57.915Z,8.90
2019-04-05T01:56:26.649Z,8.27
2019-04-05T01:58:55.444Z,9.45
2019-04-05T02:01:24.093Z,8.67
2019-04-05T02:03:53.291Z,7.97
2019-04-05T02:06:21.911Z,8.33
2019-04-05T02:08:50.640Z,8.33
2019-04-05T02:11:19.270Z,12.82
2019-04-05T02:13:48.100Z,9.98
2019-04-05T02:16:16.743Z,9.27
2019-04-05T02:18:45.354Z,7.28
2019-04-05T02:21:13.996Z,8.63
2019-04-05T02:23:42.719Z,7.13
2019-04-05T02:26:11.439Z,7.73
2019-04-05T02:28:40.093Z,8.33
2019-04-05T02:31:08.921Z,8.50
2019-04-05T02:33:37.568Z,7.60
2019-04-05T02:36:06.192Z,7.70
2019-04-05T02:38:34.816Z,8.43
2019-04-05T02:41:03.656Z,8.93
2019-04-05T02:43:33.192Z,9.27
2019-04-05T02:46:02.116Z,8.43
2019-04-05T02:48:32.227Z,7.97
2019-04-05T02:51:02.376Z,9.68
2019-04-05T02:53:31.401Z,11.20
2019-04-05T02:56:02.962Z,8.88
2019-04-05T02:58:31.865Z,11.07
2019-04-05T03:01:00.609Z,9.23
2019-04-05T03:03:29.310Z,10.43
2019-04-05T03:05:58.994Z,11.38
2019-04-05T03:08:27.697Z,9.87
2019-04-05T03:11:04.237Z,9.80
2019-04-05T03:13:35.673Z,8.60
2019-04-05T03:16:06.194Z,10.98
2019-04-05T03:18:36.258Z,10.90
2019-04-05T03:21:06.467Z,8.00
2019-04-05T03:23:37.410Z,11.40
2019-04-05T03:26:07.102Z,11.53
2019-04-05T03:28:36.136Z,11.68
2019-04-05T03:31:04.969Z,12.17
2019-04-05T03:33:33.703Z,13.53
2019-04-05T03:36:02.516Z,12.23
2019-04-05T03:38:31.641Z,12.30
2019-04-05T03:41:00.437Z,12.15
2019-04-05T03:43:29.068Z,11.90
2019-04-05T03:45:57.836Z,12.63
2019-04-05T03:48:26.432Z,11.73
2019-04-05T03:50:56.131Z,11.90
2019-04-05T03:53:25.010Z,11.80
2019-04-05T03:55:53.614Z,9.55
2019-04-05T03:58:22.200Z,9.33
2019-04-05T04:00:50.910Z,12.27
2019-04-05T04:03:19.508Z,11.43
2019-04-05T04:05:48.117Z,12.27
2019-04-05T04:08:16.741Z,10.90
2019-04-05T04:10:46.719Z,14.15
2019-04-05T04:13:15.451Z,10.20
2019-04-05T04:15:44.190Z,13.45
2019-04-05T04:18:12.746Z,11.12
2019-04-05T04:20:43.530Z,12.18
2019-04-05T04:23:12.224Z,12.67
2019-04-05T04:25:40.946Z,13.00
2019-04-05T04:28:10.041Z,13.27
2019-04-05T04:30:38.585Z,12.53
2019-04-05T04:33:07.106Z,11.57
2019-04-05T04:35:35.763Z,11.38
2019-04-05T04:38:04.642Z,12.10
2019-04-05T04:40:34.017Z,12.78
2019-04-05T04:43:03.039Z,12.25
2019-04-05T04:45:32.525Z,13.78
2019-04-05T04:48:01.356Z,11.48
2019-04-05T04:50:30.062Z,12.57
2019-04-05T04:52:58.877Z,11.75
2019-04-05T04:55:28.481Z,11.13
2019-04-05T04:57:57.305Z,11.85
2019-04-05T05:00:26.103Z,12.87
2019-04-05T05:02:54.721Z,11.83
2019-04-05T05:05:23.494Z,12.35
2019-04-05T05:07:52.244Z,12.82
2019-04-05T05:10:21.441Z,11.73
2019-04-05T05:12:53.166Z,12.50
2019-04-05T05:15:21.748Z,9.57
2019-04-05T05:17:58.556Z,11.63
2019-04-05T05:20:21.272Z,11.87
2019-04-05T05:22:49.895Z,12.68
2019-04-05T05:25:18.593Z,12.50
2019-04-05T05:27:47.193Z,11.93
2019-04-05T05:30:15.866Z,11.20
2019-04-05T05:32:44.515Z,11.80
2019-04-05T05:35:13.109Z,10.25
2019-04-05T05:37:41.682Z,12.40
2019-04-05T05:40:10.418Z,12.90
2019-04-05T05:42:39.033Z,12.07
2019-04-05T05:45:08.486Z,12.30
2019-04-05T05:47:37.086Z,12.00
2019-04-05T05:50:05.750Z,11.80
2019-04-05T05:52:34.571Z,10.08
2019-04-05T05:55:03.409Z,12.73
2019-04-05T05:57:32.125Z,11.78
2019-04-05T06:00:01.195Z,11.53
2019-04-05T06:02:29.846Z,11.12
2019-04-05T06:04:58.469Z,11.30
2019-04-05T06:07:27.065Z,11.40
2019-04-05T06:09:55.591Z,11.50
2019-04-05T06:12:24.193Z,12.33
2019-04-05T06:14:52.727Z,11.20
2019-04-05T06:17:21.489Z,11.83
2019-04-05T06:19:50.069Z,11.33
2019-04-05T06:22:18.718Z,11.05
2019-04-05T06:24:47.863Z,12.28
2019-04-05T06:27:16.465Z,11.20
2019-04-05T06:29:45.062Z,9.20
2019-04-05T06:32:13.589Z,9.90
2019-04-05T06:34:42.124Z,9.80
2019-04-05T06:37:10.989Z,8.48
2019-04-05T06:39:39.641Z,10.30
2019-04-05T06:42:08.248Z,9.43
2019-04-05T06:44:36.909Z,8.35
2019-04-05T06:47:05.421Z,6.87
2019-04-05T06:49:33.950Z,9.80
2019-04-05T06:52:02.537Z,9.40
2019-04-05T06:54:31.189Z,9.83
2019-04-05T06:56:59.878Z,9.97
2019-04-05T06:59:28.547Z,9.87
2019-04-05T07:01:57.161Z,9.25
2019-04-05T07:04:26.349Z,5.47
2019-04-05T07:06:54.897Z,6.47
2019-04-05T07:09:24.389Z,10.00
2019-04-05T07:11:52.994Z,10.35
2019-04-05T07:14:21.509Z,9.20
2019-04-05T07:16:50.097Z,8.87
2019-04-05T07:19:18.713Z,10.48
2019-04-05T07:21:47.301Z,7.53
2019-04-05T07:24:15.812Z,8.50
2019-04-05T07:26:44.781Z,8.93
2019-04-05T07:29:13.377Z,9.37
2019-04-05T07:31:41.897Z,8.00
2019-04-05T07:34:10.527Z,8.27
2019-04-05T07:36:39.059Z,9.20
2019-04-05T07:39:07.642Z,8.90
2019-04-05T07:41:36.182Z,7.45
2019-04-05T07:44:04.793Z,7.78
2019-04-05T07:46:33.399Z,7.80
2019-04-05T07:49:02.082Z,6.67
2019-04-05T07:51:30.750Z,7.67
2019-04-05T07:53:59.354Z,5.93
2019-04-05T07:56:27.937Z,6.97
2019-04-05T07:58:56.506Z,5.60
2019-04-05T08:01:25.170Z,6.08
2019-04-05T08:03:53.824Z,7.37
2019-04-05T08:06:22.432Z,7.17
2019-04-05T08:08:55.364Z,6.60
2019-04-05T08:11:24.881Z,3.97
2019-04-05T08:13:54.951Z,5.92
2019-04-05T08:16:23.529Z,6.60
2019-04-05T08:18:58.102Z,6.90
2019-04-05T08:21:22.289Z,6.92
2019-04-05T08:23:50.819Z,6.85
2019-04-05T08:26:19.342Z,6.50
2019-04-05T08:28:47.853Z,6.47
2019-04-05T08:31:16.372Z,6.30
2019-04-05T08:33:44.960Z,5.50
2019-04-05T08:36:13.573Z,6.30
2019-04-05T08:38:42.297Z,5.00
2019-04-05T08:41:10.827Z,5.07
2019-04-05T08:43:39.421Z,3.30
2019-04-05T08:46:08.113Z,4.53
2019-04-05T08:48:36.697Z,4.70
2019-04-05T08:51:05.494Z,4.90
2019-04-05T08:53:34.492Z,4.40
2019-04-05T08:56:03.161Z,4.57
2019-04-05T08:58:33.527Z,1.87
2019-04-05T09:01:01.893Z,3.90
2019-04-05T09:03:30.933Z,4.62
2019-04-05T09:05:59.513Z,4.73
2019-04-05T09:08:28.117Z,5.47
2019-04-05T09:10:56.704Z,5.50
2019-04-05T09:13:25.213Z,4.50
2019-04-05T09:15:54.372Z,3.08
2019-04-05T09:18:22.889Z,4.10
2019-04-05T09:20:52.377Z,5.30
2019-04-05T09:23:20.913Z,3.47
2019-04-05T09:25:49.884Z,1.90
2019-04-05T09:28:19.389Z,4.30
2019-04-05T09:30:48.118Z,3.93
2019-04-05T09:33:16.657Z,4.60
2019-04-05T09:35:45.613Z,4.50
2019-04-05T09:38:14.133Z,4.67
2019-04-05T09:40:42.668Z,4.12
2019-04-05T09:43:11.540Z,2.37
2019-04-05T09:45:40.196Z,5.10
2019-04-05T09:48:08.889Z,2.57
2019-04-05T09:50:37.392Z,5.10
2019-04-05T09:53:06.310Z,2.50
2019-04-05T09:55:34.917Z,2.85
2019-04-05T09:58:03.741Z,4.57
2019-04-05T10:00:32.354Z,4.47
2019-04-05T10:03:00.959Z,5.42
2019-04-05T10:05:29.721Z,4.80
2019-04-05T10:07:58.305Z,4.13
2019-04-05T10:10:26.833Z,4.92
2019-04-05T10:12:55.425Z,6.20
2019-04-05T10:15:24.721Z,4.92
2019-04-05T10:17:53.345Z,1.33
2019-04-05T10:20:21.933Z,4.37
2019-04-05T10:22:50.502Z,3.60
2019-04-05T10:25:19.099Z,1.13
2019-04-05T10:27:47.618Z,6.00
2019-04-05T10:30:16.554Z,1.47
2019-04-05T10:32:46.292Z,4.30
2019-04-05T10:35:15.127Z,4.33
2019-04-05T10:37:43.736Z,1.10
2019-04-05T10:40:12.721Z,2.13
2019-04-05T10:42:41.230Z,4.08
2019-04-05T10:45:11.014Z,2.27
2019-04-05T10:47:39.665Z,1.50
2019-04-05T10:50:09.305Z,3.80
2019-04-05T10:52:38.899Z,1.07
2019-04-05T10:55:07.610Z,1.67
2019-04-05T10:57:36.217Z,0.98
2019-04-05T11:00:06.410Z,3.20
2019-04-05T11:02:35.517Z,1.20
2019-04-05T11:05:04.222Z,4.33
2019-04-05T11:07:34.971Z,3.97
2019-04-05T11:10:03.079Z,3.00
2019-04-05T11:12:31.676Z,4.30
2019-04-05T11:15:01.421Z,4.70
2019-04-05T11:17:30.012Z,0.97
2019-04-05T11:19:58.973Z,1.40
2019-04-05T11:22:27.557Z,1.82
2019-04-05T11:24:56.156Z,1.10
2019-04-05T11:27:24.686Z,4.90
2019-04-05T11:29:53.261Z,5.83
2019-04-05T11:32:21.786Z,6.17
2019-04-05T11:34:50.766Z,7.22
2019-04-05T11:37:19.815Z,5.65
2019-04-05T11:39:48.699Z,6.83
2019-04-05T11:42:19.005Z,4.37
2019-04-05T11:44:49.228Z,1.05
2019-04-05T11:47:19.385Z,0.73
2019-04-05T11:49:48.869Z,1.30
2019-04-05T11:52:17.373Z,1.67
2019-04-05T11:54:46.694Z,1.50
2019-04-05T11:57:15.333Z,1.40
2019-04-05T11:59:43.930Z,5.67
2019-04-05T12:02:25.685Z,4.10
2019-04-05T12:04:56.890Z,5.97
2019-04-05T12:07:26.726Z,1.43
2019-04-05T12:09:55.772Z,3.22
2019-04-05T12:12:25.655Z,9.20
2019-04-05T12:14:54.365Z,6.22
2019-04-05T12:17:22.952Z,5.65
2019-04-05T12:19:51.542Z,8.50
2019-04-05T12:22:20.197Z,8.93
2019-04-05T12:24:48.821Z,1.13
2019-04-05T12:27:17.352Z,3.15
2019-04-05T12:29:46.061Z,6.87
2019-04-05T12:32:17.857Z,9.95
2019-04-05T12:34:45.630Z,4.78
2019-04-05T12:37:14.889Z,10.95
2019-04-05T12:39:43.405Z,10.75
2019-04-05T12:42:12.833Z,7.50
2019-04-05T12:44:44.863Z,11.27
2019-04-05T12:47:13.945Z,10.00
2019-04-05T12:49:45.202Z,10.00
2019-04-05T12:52:22.656Z,9.95
2019-04-05T12:54:42.837Z,7.67
2019-04-05T12:57:11.357Z,1.95
2019-04-05T12:59:39.928Z,4.33
2019-04-05T13:04:55.790Z,10.48
2019-04-05T13:07:30.366Z,3.37
2019-04-05T13:09:58.986Z,3.92
2019-04-05T13:12:27.668Z,4.07
2019-04-05T13:15:10.987Z,5.22
2019-04-05T13:17:26.483Z,8.33
2019-04-05T13:19:55.621Z,3.87
2019-04-05T13:22:24.233Z,1.80
2019-04-05T13:24:52.749Z,8.93
2019-04-05T13:27:21.334Z,5.07
2019-04-05T13:29:49.862Z,6.40
2019-04-05T13:32:21.616Z,0.70
2019-04-05T13:34:48.666Z,6.30
2019-04-05T13:37:20.588Z,5.33
2019-04-05T13:39:47.400Z,3.75
2019-04-05T13:42:17.498Z,10.10
2019-04-05T13:44:46.101Z,7.07
2019-04-05T13:47:14.717Z,5.17
2019-04-05T13:49:43.353Z,4.15
2019-04-05T13:52:12.720Z,4.10
2019-04-05T13:54:41.473Z,7.80
2019-04-05T13:57:11.380Z,6.00
2019-04-05T13:59:40.094Z,6.20
2019-04-05T14:02:08.624Z,5.07
2019-04-05T14:04:37.220Z,8.18
2019-04-05T14:07:05.826Z,7.87
2019-04-05T14:09:34.436Z,6.85
2019-04-05T14:12:04.042Z,5.80
2019-04-05T14:14:32.664Z,1.00
2019-04-05T14:17:01.333Z,6.00
2019-04-05T14:19:29.845Z,6.13
2019-04-05T14:22:08.324Z,3.43
2019-04-05T14:24:28.580Z,5.72
2019-04-05T14:26:57.169Z,4.53
2019-04-05T14:29:25.749Z,3.52
2019-04-05T14:31:54.677Z,4.25
2019-04-05T14:34:23.707Z,5.53
2019-04-05T14:36:53.101Z,4.83
2019-04-05T14:39:21.718Z,4.03
2019-04-05T14:41:50.217Z,3.20
2019-04-05T14:44:18.737Z,2.23
2019-04-05T14:46:47.345Z,3.47
2019-04-05T14:49:15.945Z,2.67
2019-04-05T14:51:52.880Z,3.07
2019-04-05T14:54:14.853Z,2.93
2019-04-05T14:56:43.433Z,3.60
2019-04-05T14:59:12.065Z,2.13
2019-04-05T15:01:40.612Z,4.90
2019-04-05T15:04:11.886Z,3.20
2019-04-05T15:06:39.419Z,3.83
2019-04-05T15:09:08.047Z,2.20
2019-04-05T15:11:37.210Z,3.27
2019-04-05T15:14:06.195Z,5.35
2019-04-05T15:16:34.737Z,2.25
2019-04-05T15:19:03.381Z,3.83
2019-04-05T15:21:34.592Z,3.40
2019-04-05T15:24:02.221Z,3.97
2019-04-05T15:26:30.813Z,4.83
2019-04-05T15:28:59.351Z,3.87
2019-04-05T15:31:27.950Z,4.30
2019-04-05T15:33:57.712Z,0.73
2019-04-05T15:36:26.709Z,2.83
2019-04-05T15:38:55.217Z,3.72
2019-04-05T15:41:23.754Z,1.50
2019-04-05T15:43:52.261Z,1.87
2019-04-05T15:46:20.772Z,5.00
2019-04-05T15:48:51.523Z,4.15
2019-04-05T15:51:19.605Z,3.63
2019-04-05T15:53:48.190Z,4.37
2019-04-05T15:56:16.861Z,4.90
2019-04-05T15:58:45.373Z,5.12
2019-04-05T16:01:14.061Z,4.80
2019-04-05T16:03:42.577Z,4.67
2019-04-05T16:06:11.110Z,0.75
2019-04-05T16:08:39.761Z,4.63
2019-04-05T16:11:08.462Z,4.05
2019-04-05T16:13:37.001Z,2.87
2019-04-05T16:16:05.694Z,4.40
2019-04-05T16:18:35.033Z,1.52
2019-04-05T16:21:03.565Z,4.90
2019-04-05T16:23:32.061Z,3.95
2019-04-05T16:26:00.570Z,4.37
2019-04-05T16:28:29.101Z,4.77
2019-04-05T16:30:57.721Z,4.33
2019-04-05T16:33:26.313Z,3.72
2019-04-05T16:35:54.977Z,1.00
2019-04-05T16:38:23.537Z,4.00
2019-04-05T16:40:52.121Z,2.27
2019-04-05T16:43:20.701Z,3.30
2019-04-05T16:45:49.230Z,4.10
2019-04-05T16:48:17.845Z,4.80
2019-04-05T16:50:46.451Z,3.55
2019-04-05T16:53:15.049Z,3.40
2019-04-05T16:55:43.645Z,3.08
2019-04-05T16:58:12.261Z,1.13
2019-04-05T17:00:40.820Z,2.47
2019-04-05T17:03:09.501Z,2.83
2019-04-05T17:05:38.029Z,4.20
2019-04-05T17:08:06.689Z,3.87
2019-04-05T17:10:35.306Z,3.77
2019-04-05T17:13:03.913Z,4.20
2019-04-05T17:15:32.493Z,1.63
2019-04-05T17:18:03.352Z,3.67
2019-04-05T17:20:31.862Z,3.50
2019-04-05T17:23:00.369Z,3.67
2019-04-05T17:25:29.030Z,3.67
2019-04-05T17:27:57.697Z,3.22
2019-04-05T17:30:26.361Z,2.50
2019-04-05T17:32:54.976Z,1.47
2019-04-05T17:35:23.541Z,2.73
2019-04-05T17:37:52.057Z,2.22
2019-04-05T17:40:21.302Z,2.05
2019-04-05T17:42:49.829Z,2.33
2019-04-05T17:45:18.551Z,1.30
2019-04-05T17:47:47.061Z,3.83
2019-04-05T17:50:18.477Z,3.95
2019-04-05T17:52:47.028Z,1.00
2019-04-05T17:55:15.878Z,2.15
2019-04-05T17:57:44.522Z,4.00
2019-04-05T18:00:18.422Z,3.97
2019-04-05T18:02:47.030Z,4.53
2019-04-05T18:05:15.619Z,4.20
2019-04-05T18:07:44.582Z,3.83
2019-04-05T18:10:13.189Z,3.35
2019-04-05T18:12:41.693Z,0.80
2019-04-05T18:15:10.641Z,2.07
2019-04-05T18:17:39.221Z,3.60
2019-04-05T18:20:09.758Z,1.27
2019-04-05T18:22:38.057Z,1.10
2019-04-05T18:25:06.775Z,1.80
2019-04-05T18:27:35.308Z,5.03
2019-04-05T18:30:04.182Z,5.30
2019-04-05T18:32:32.860Z,4.37
2019-04-05T18:35:01.369Z,5.37
2019-04-05T18:37:30.109Z,5.50
2019-04-05T18:39:58.609Z,5.30
2019-04-05T18:42:27.133Z,6.77
2019-04-05T18:44:55.660Z,6.57
2019-04-05T18:47:24.167Z,4.97
2019-04-05T18:50:02.748Z,7.72
2019-04-05T18:52:24.053Z,7.87
2019-04-05T18:54:52.601Z,7.40
2019-04-05T18:57:21.113Z,8.73
2019-04-05T18:59:49.757Z,6.45
2019-04-05T19:02:18.337Z,9.80
2019-04-05T19:04:46.917Z,5.83
2019-04-05T19:07:15.530Z,6.20
2019-04-05T19:09:44.203Z,5.60
2019-04-05T19:12:12.893Z,7.92
2019-04-05T19:14:41.408Z,9.33
2019-04-05T19:17:22.931Z,12.83
2019-04-05T19:19:40.223Z,12.70
2019-04-05T19:22:08.978Z,12.70
2019-04-05T19:24:37.570Z,11.90
2019-04-05T19:27:06.189Z,5.53
2019-04-05T19:29:34.823Z,4.58
2019-04-05T19:49:38.399Z,13.25
2019-04-05T19:52:07.017Z,15.32
2019-04-05T19:54:36.689Z,15.67
2019-04-05T19:57:05.213Z,13.77
2019-04-05T19:59:33.832Z,15.43
2019-04-05T20:02:02.421Z,16.70
2019-04-05T20:04:31.029Z,15.63
2019-04-05T20:06:59.976Z,16.62
2019-04-05T20:09:28.617Z,17.42
2019-04-05T20:11:57.213Z,13.22
2019-04-05T20:14:25.740Z,16.60
2019-04-05T20:16:54.355Z,15.03
2019-04-05T20:19:22.966Z,11.80
2019-04-05T20:21:52.317Z,16.00
2019-04-05T20:24:20.943Z,17.40
2019-04-05T20:26:50.613Z,16.90
2019-04-05T20:29:19.136Z,17.12
2019-04-05T20:31:48.726Z,12.20
2019-04-05T20:34:17.411Z,15.18
2019-04-05T20:36:46.141Z,11.27
2019-04-05T20:39:14.761Z,11.20
2019-04-05T20:41:43.285Z,11.75
2019-04-05T20:44:11.838Z,14.57
2019-04-05T20:46:40.429Z,10.78
2019-04-05T20:49:09.029Z,16.27
2019-04-05T20:51:37.586Z,14.07
2019-04-05T20:54:06.173Z,4.55
2019-04-05T20:56:34.762Z,14.70
2019-04-05T20:59:03.379Z,9.00
2019-04-05T21:01:31.977Z,11.20
2019-04-05T21:04:00.649Z,15.23
2019-04-05T21:06:29.189Z,13.80
2019-04-05T21:08:57.718Z,13.50
2019-04-05T21:11:27.266Z,14.65
2019-04-05T21:13:55.890Z,13.50
2019-04-05T21:16:24.409Z,15.83
2019-04-05T21:18:52.929Z,9.68
2019-04-05T21:21:22.655Z,16.23
2019-04-05T21:23:51.282Z,12.67
2019-04-05T21:26:19.923Z,2.00
2019-04-05T21:28:49.012Z,2.47
2019-04-05T21:31:17.643Z,4.33
2019-04-05T21:33:46.637Z,16.30
2019-04-05T21:36:15.617Z,9.57
2019-04-05T21:38:44.223Z,17.07
2019-04-05T21:41:13.287Z,8.57
2019-04-05T21:43:42.015Z,13.25
2019-04-05T21:46:11.711Z,15.97
2019-04-05T21:48:40.331Z,4.90
2019-04-05T21:51:08.986Z,16.48
2019-04-05T21:53:37.727Z,12.07
2019-04-05T21:56:06.355Z,17.10
2019-04-05T21:58:34.995Z,15.67
2019-04-05T22:01:05.386Z,3.90
2019-04-05T22:03:35.398Z,15.20
2019-04-05T22:06:04.911Z,13.03
2019-04-05T22:08:33.539Z,10.97
2019-04-05T22:11:03.448Z,14.63
2019-04-05T22:13:32.105Z,17.30
2019-04-05T22:16:00.775Z,17.07
2019-04-05T22:18:29.433Z,12.55
2019-04-05T22:20:59.576Z,10.82
2019-04-05T22:23:28.304Z,14.75
2019-04-05T22:25:57.869Z,17.40
2019-04-05T22:28:26.527Z,17.13
2019-04-05T22:30:55.748Z,18.15
2019-04-05T22:33:24.675Z,18.07
2019-04-05T22:35:53.581Z,15.50
2019-04-05T22:38:22.234Z,16.42
2019-04-05T22:40:50.896Z,13.83
2019-04-05T22:43:19.556Z,20.95
2019-04-05T22:45:48.283Z,18.03
2019-04-05T22:48:16.938Z,10.93
2019-04-05T22:50:45.660Z,6.90
2019-04-05T22:53:14.332Z,19.77
2019-04-05T22:55:42.995Z,19.17
2019-04-05T22:58:11.715Z,5.80
2019-04-05T23:00:40.388Z,12.30
2019-04-05T23:03:10.668Z,18.93
2019-04-05T23:05:39.320Z,18.62
2019-04-05T23:08:08.608Z,19.27
2019-04-05T23:10:37.955Z,20.10
2019-04-05T23:13:06.904Z,19.57
2019-04-05T23:15:35.660Z,20.57
2019-04-05T23:18:04.316Z,21.13
2019-04-05T23:20:32.987Z,23.22
2019-04-05T23:23:01.636Z,21.62
2019-04-05T23:25:30.288Z,10.55
2019-04-05T23:27:58.948Z,9.90
2019-04-05T23:30:28.270Z,22.67
2019-04-05T23:32:56.928Z,25.17
2019-04-05T23:35:25.579Z,16.40
2019-04-05T23:37:54.243Z,22.90
2019-04-05T23:40:23.064Z,22.57
2019-04-05T23:42:51.736Z,22.35
2019-04-05T23:45:20.380Z,21.55
2019-04-05T23:47:49.040Z,16.12
2019-04-05T23:50:17.692Z,10.88
2019-04-05T23:52:46.340Z,13.98
2019-04-05T23:55:14.996Z,23.25
2019-04-05T23:57:44.851Z,20.40
